sensor_id;sensor_type;location;lat;lon;timestamp;pressure;altitude;pressure_sealevel;temperature;humidity
6144;BME280;3103;49.492;8.474;2023-06-14T00:00:44;100076.47;;;23.80;28.32
6144;BME280;3103;49.492;8.474;2023-06-14T00:03:11;100070.94;;;23.67;28.57
6144;BME280;3103;49.492;8.474;2023-06-14T00:05:39;100075.69;;;23.58;28.90
6144;BME280;3103;49.492;8.474;2023-06-14T00:08:10;100069.13;;;23.72;28.73
6144;BME280;3103;49.492;8.474;2023-06-14T00:10:38;100074.03;;;23.78;28.85
6144;BME280;3103;49.492;8.474;2023-06-14T00:13:08;100069.22;;;23.96;28.67
6144;BME280;3103;49.492;8.474;2023-06-14T00:15:35;100072.16;;;24.24;28.19
6144;BME280;3103;49.492;8.474;2023-06-14T00:18:02;100069.97;;;24.17;28.12
6144;BME280;3103;49.492;8.474;2023-06-14T00:20:31;100070.41;;;24.40;27.88
6144;BME280;3103;49.492;8.474;2023-06-14T00:23:00;100066.16;;;24.43;27.85
6144;BME280;3103;49.492;8.474;2023-06-14T00:25:27;100071.44;;;24.15;28.17
6144;BME280;3103;49.492;8.474;2023-06-14T00:27:57;100067.97;;;23.93;28.57
6144;BME280;3103;49.492;8.474;2023-06-14T00:30:24;100069.63;;;23.86;28.59
6144;BME280;3103;49.492;8.474;2023-06-14T00:32:52;100072.13;;;23.58;29.27
6144;BME280;3103;49.492;8.474;2023-06-14T00:35:19;100070.72;;;23.52;29.42
6144;BME280;3103;49.492;8.474;2023-06-14T00:37:45;100080.06;;;23.51;29.27
6144;BME280;3103;49.492;8.474;2023-06-14T00:40:12;100077.47;;;23.54;29.19
6144;BME280;3103;49.492;8.474;2023-06-14T00:42:40;100071.56;;;23.44;29.22
6144;BME280;3103;49.492;8.474;2023-06-14T00:45:07;100067.88;;;23.19;29.78
6144;BME280;3103;49.492;8.474;2023-06-14T00:47:36;100071.47;;;23.10;30.14
6144;BME280;3103;49.492;8.474;2023-06-14T00:50:07;100071.19;;;23.03;30.40
6144;BME280;3103;49.492;8.474;2023-06-14T00:52:34;100077.13;;;23.05;30.53
6144;BME280;3103;49.492;8.474;2023-06-14T00:55:02;100075.72;;;22.99;30.85
6144;BME280;3103;49.492;8.474;2023-06-14T00:57:31;100077.13;;;23.05;30.64
6144;BME280;3103;49.492;8.474;2023-06-14T00:59:58;100078.69;;;23.15;30.32
6144;BME280;3103;49.492;8.474;2023-06-14T01:02:44;100079.88;;;23.05;30.58
6144;BME280;3103;49.492;8.474;2023-06-14T01:05:30;100075.34;;;23.09;30.67
6144;BME280;3103;49.492;8.474;2023-06-14T01:08:11;100078.28;;;23.04;31.02
6144;BME280;3103;49.492;8.474;2023-06-14T01:10:52;100083.03;;;22.87;31.18
6144;BME280;3103;49.492;8.474;2023-06-14T01:13:22;100083.72;;;22.75;31.43
6144;BME280;3103;49.492;8.474;2023-06-14T01:15:50;100085.44;;;22.79;31.62
6144;BME280;3103;49.492;8.474;2023-06-14T01:18:17;100085.78;;;22.78;31.44
6144;BME280;3103;49.492;8.474;2023-06-14T01:20:46;100093.16;;;22.95;31.10
6144;BME280;3103;49.492;8.474;2023-06-14T01:23:17;100091.53;;;22.94;31.23
6144;BME280;3103;49.492;8.474;2023-06-14T01:25:44;100090.22;;;23.00;31.19
6144;BME280;3103;49.492;8.474;2023-06-14T01:28:12;100095.00;;;23.12;31.20
6144;BME280;3103;49.492;8.474;2023-06-14T01:30:42;100090.50;;;23.07;31.29
6144;BME280;3103;49.492;8.474;2023-06-14T01:33:15;100084.84;;;22.83;31.76
6144;BME280;3103;49.492;8.474;2023-06-14T01:35:45;100086.25;;;22.80;31.71
6144;BME280;3103;49.492;8.474;2023-06-14T01:38:13;100083.94;;;22.61;31.89
6144;BME280;3103;49.492;8.474;2023-06-14T01:40:42;100090.66;;;22.72;32.05
6144;BME280;3103;49.492;8.474;2023-06-14T01:43:11;100093.19;;;22.77;31.90
6144;BME280;3103;49.492;8.474;2023-06-14T01:45:40;100088.06;;;22.76;32.38
6144;BME280;3103;49.492;8.474;2023-06-14T01:48:09;100087.13;;;22.72;32.57
6144;BME280;3103;49.492;8.474;2023-06-14T01:50:36;100095.00;;;22.73;33.04
6144;BME280;3103;49.492;8.474;2023-06-14T01:53:07;100088.25;;;22.71;33.11
6144;BME280;3103;49.492;8.474;2023-06-14T01:55:37;100094.84;;;22.70;33.54
6144;BME280;3103;49.492;8.474;2023-06-14T01:58:07;100095.56;;;22.49;33.79
6144;BME280;3103;49.492;8.474;2023-06-14T02:00:34;100100.88;;;22.46;33.94
6144;BME280;3103;49.492;8.474;2023-06-14T02:03:02;100103.50;;;22.34;34.48
6144;BME280;3103;49.492;8.474;2023-06-14T02:05:30;100105.16;;;22.09;35.14
6144;BME280;3103;49.492;8.474;2023-06-14T02:07:57;100106.28;;;22.08;35.41
6144;BME280;3103;49.492;8.474;2023-06-14T02:10:24;100099.19;;;21.98;35.48
6144;BME280;3103;49.492;8.474;2023-06-14T02:12:54;100094.53;;;21.90;35.71
6144;BME280;3103;49.492;8.474;2023-06-14T02:15:21;100100.31;;;21.97;35.52
6144;BME280;3103;49.492;8.474;2023-06-14T02:17:48;100099.34;;;21.93;35.93
6144;BME280;3103;49.492;8.474;2023-06-14T02:20:18;100109.66;;;21.87;36.19
6144;BME280;3103;49.492;8.474;2023-06-14T02:22:45;100108.19;;;21.90;36.08
6144;BME280;3103;49.492;8.474;2023-06-14T02:25:12;100100.50;;;21.83;36.55
6144;BME280;3103;49.492;8.474;2023-06-14T02:27:41;100107.72;;;21.71;36.91
6144;BME280;3103;49.492;8.474;2023-06-14T02:30:10;100109.50;;;21.75;36.79
6144;BME280;3103;49.492;8.474;2023-06-14T02:32:37;100109.66;;;21.61;37.05
6144;BME280;3103;49.492;8.474;2023-06-14T02:35:05;100106.56;;;21.37;37.89
6144;BME280;3103;49.492;8.474;2023-06-14T02:37:35;100107.03;;;21.39;37.65
6144;BME280;3103;49.492;8.474;2023-06-14T02:40:02;100116.69;;;21.37;37.72
6144;BME280;3103;49.492;8.474;2023-06-14T02:42:31;100108.97;;;21.39;37.97
6144;BME280;3103;49.492;8.474;2023-06-14T02:44:58;100111.00;;;21.24;38.25
6144;BME280;3103;49.492;8.474;2023-06-14T02:47:31;100111.22;;;21.28;37.94
6144;BME280;3103;49.492;8.474;2023-06-14T02:49:58;100104.81;;;21.41;37.80
6144;BME280;3103;49.492;8.474;2023-06-14T02:52:26;100108.50;;;21.37;37.75
6144;BME280;3103;49.492;8.474;2023-06-14T02:54:52;100116.19;;;21.34;37.73
6144;BME280;3103;49.492;8.474;2023-06-14T02:57:22;100108.16;;;21.29;37.99
6144;BME280;3103;49.492;8.474;2023-06-14T02:59:49;100105.22;;;21.17;38.11
6144;BME280;3103;49.492;8.474;2023-06-14T03:02:16;100116.47;;;21.16;38.21
6144;BME280;3103;49.492;8.474;2023-06-14T03:04:44;100120.81;;;21.17;38.10
6144;BME280;3103;49.492;8.474;2023-06-14T03:07:15;100115.91;;;20.96;39.09
6144;BME280;3103;49.492;8.474;2023-06-14T03:09:49;100122.53;;;21.04;38.85
6144;BME280;3103;49.492;8.474;2023-06-14T03:12:16;100114.41;;;20.82;39.65
6144;BME280;3103;49.492;8.474;2023-06-14T03:14:43;100117.44;;;20.80;39.56
6144;BME280;3103;49.492;8.474;2023-06-14T03:17:15;100119.25;;;20.85;39.38
6144;BME280;3103;49.492;8.474;2023-06-14T03:19:44;100127.84;;;21.09;39.18
6144;BME280;3103;49.492;8.474;2023-06-14T03:22:12;100124.50;;;21.12;38.99
6144;BME280;3103;49.492;8.474;2023-06-14T03:24:40;100124.00;;;21.19;38.80
6144;BME280;3103;49.492;8.474;2023-06-14T03:27:10;100132.59;;;20.95;39.12
6144;BME280;3103;49.492;8.474;2023-06-14T03:29:42;100130.09;;;21.07;39.05
6144;BME280;3103;49.492;8.474;2023-06-14T03:32:09;100130.50;;;20.92;39.58
6144;BME280;3103;49.492;8.474;2023-06-14T03:34:39;100135.22;;;21.00;39.38
6144;BME280;3103;49.492;8.474;2023-06-14T03:37:08;100131.47;;;20.96;39.24
6144;BME280;3103;49.492;8.474;2023-06-14T03:39:35;100129.44;;;21.10;38.92
6144;BME280;3103;49.492;8.474;2023-06-14T03:42:03;100139.22;;;21.02;39.21
6144;BME280;3103;49.492;8.474;2023-06-14T03:44:31;100139.56;;;21.01;39.09
6144;BME280;3103;49.492;8.474;2023-06-14T03:46:59;100148.50;;;20.93;39.33
6144;BME280;3103;49.492;8.474;2023-06-14T03:49:27;100144.84;;;20.97;39.18
6144;BME280;3103;49.492;8.474;2023-06-14T03:51:54;100150.59;;;20.96;39.07
6144;BME280;3103;49.492;8.474;2023-06-14T03:54:23;100149.16;;;20.90;39.07
6144;BME280;3103;49.492;8.474;2023-06-14T03:56:54;100147.09;;;21.04;39.27
6144;BME280;3103;49.492;8.474;2023-06-14T03:59:21;100150.69;;;21.13;39.20
6144;BME280;3103;49.492;8.474;2023-06-14T04:01:48;100157.28;;;21.21;38.46
6144;BME280;3103;49.492;8.474;2023-06-14T04:04:16;100161.09;;;21.11;38.92
6144;BME280;3103;49.492;8.474;2023-06-14T04:06:43;100167.56;;;21.15;39.23
6144;BME280;3103;49.492;8.474;2023-06-14T04:09:10;100170.25;;;21.07;39.32
6144;BME280;3103;49.492;8.474;2023-06-14T04:11:37;100168.69;;;21.14;38.99
6144;BME280;3103;49.492;8.474;2023-06-14T04:14:05;100167.69;;;21.10;39.02
6144;BME280;3103;49.492;8.474;2023-06-14T04:16:32;100174.19;;;20.83;39.59
6144;BME280;3103;49.492;8.474;2023-06-14T04:19:00;100181.09;;;20.89;39.12
6144;BME280;3103;49.492;8.474;2023-06-14T04:21:28;100178.44;;;20.98;38.99
6144;BME280;3103;49.492;8.474;2023-06-14T04:23:58;100186.09;;;20.96;38.70
6144;BME280;3103;49.492;8.474;2023-06-14T04:26:30;100181.84;;;20.81;38.65
6144;BME280;3103;49.492;8.474;2023-06-14T04:29:00;100186.06;;;20.87;38.58
6144;BME280;3103;49.492;8.474;2023-06-14T04:31:33;100186.47;;;21.03;38.25
6144;BME280;3103;49.492;8.474;2023-06-14T04:34:01;100192.25;;;21.01;38.27
6144;BME280;3103;49.492;8.474;2023-06-14T04:36:35;100194.75;;;20.89;38.35
6144;BME280;3103;49.492;8.474;2023-06-14T04:39:06;100188.81;;;20.96;38.19
6144;BME280;3103;49.492;8.474;2023-06-14T04:41:33;100187.81;;;21.14;37.61
6144;BME280;3103;49.492;8.474;2023-06-14T04:44:02;100198.72;;;21.14;37.45
6144;BME280;3103;49.492;8.474;2023-06-14T04:46:34;100196.25;;;21.26;37.21
6144;BME280;3103;49.492;8.474;2023-06-14T04:49:16;100196.94;;;21.41;36.77
6144;BME280;3103;49.492;8.474;2023-06-14T04:51:45;100202.72;;;21.48;36.66
6144;BME280;3103;49.492;8.474;2023-06-14T04:54:13;100208.13;;;21.30;36.73
6144;BME280;3103;49.492;8.474;2023-06-14T04:56:41;100213.00;;;21.42;36.81
6144;BME280;3103;49.492;8.474;2023-06-14T04:59:12;100218.47;;;21.51;36.92
6144;BME280;3103;49.492;8.474;2023-06-14T05:01:41;100218.84;;;21.58;36.55
6144;BME280;3103;49.492;8.474;2023-06-14T05:04:08;100218.03;;;21.57;36.62
6144;BME280;3103;49.492;8.474;2023-06-14T05:06:35;100225.28;;;21.71;36.38
6144;BME280;3103;49.492;8.474;2023-06-14T05:09:03;100224.50;;;21.70;36.65
6144;BME280;3103;49.492;8.474;2023-06-14T05:11:30;100229.31;;;21.73;36.54
6144;BME280;3103;49.492;8.474;2023-06-14T05:13:56;100224.34;;;21.84;36.19
6144;BME280;3103;49.492;8.474;2023-06-14T05:16:25;100231.69;;;21.66;36.67
6144;BME280;3103;49.492;8.474;2023-06-14T05:18:54;100226.91;;;21.80;36.80
6144;BME280;3103;49.492;8.474;2023-06-14T05:21:21;100228.69;;;21.93;36.00
6144;BME280;3103;49.492;8.474;2023-06-14T05:23:48;100224.84;;;21.86;36.68
6144;BME280;3103;49.492;8.474;2023-06-14T05:26:15;100230.13;;;21.91;36.38
6144;BME280;3103;49.492;8.474;2023-06-14T05:28:42;100222.28;;;21.98;36.21
6144;BME280;3103;49.492;8.474;2023-06-14T05:31:09;100229.34;;;21.99;36.42
6144;BME280;3103;49.492;8.474;2023-06-14T05:33:36;100231.56;;;21.80;36.53
6144;BME280;3103;49.492;8.474;2023-06-14T05:36:03;100224.38;;;22.01;36.12
6144;BME280;3103;49.492;8.474;2023-06-14T05:38:31;100235.19;;;22.23;35.74
6144;BME280;3103;49.492;8.474;2023-06-14T05:40:58;100231.47;;;22.19;35.68
6144;BME280;3103;49.492;8.474;2023-06-14T05:43:26;100241.63;;;22.36;35.40
6144;BME280;3103;49.492;8.474;2023-06-14T05:45:53;100241.13;;;22.51;35.02
6144;BME280;3103;49.492;8.474;2023-06-14T05:48:20;100242.72;;;22.70;34.76
6144;BME280;3103;49.492;8.474;2023-06-14T05:50:48;100238.66;;;22.93;34.37
6144;BME280;3103;49.492;8.474;2023-06-14T05:53:15;100243.78;;;23.12;34.09
6144;BME280;3103;49.492;8.474;2023-06-14T05:55:42;100249.53;;;23.19;33.87
6144;BME280;3103;49.492;8.474;2023-06-14T05:58:09;100253.38;;;23.27;33.69
6144;BME280;3103;49.492;8.474;2023-06-14T06:00:37;100252.13;;;23.16;33.68
6144;BME280;3103;49.492;8.474;2023-06-14T06:03:03;100248.88;;;23.22;33.56
6144;BME280;3103;49.492;8.474;2023-06-14T06:05:31;100254.31;;;23.31;33.68
6144;BME280;3103;49.492;8.474;2023-06-14T06:07:58;100260.88;;;23.47;33.51
6144;BME280;3103;49.492;8.474;2023-06-14T06:10:25;100257.47;;;23.50;33.44
6144;BME280;3103;49.492;8.474;2023-06-14T06:12:52;100250.16;;;23.63;33.12
6144;BME280;3103;49.492;8.474;2023-06-14T06:15:20;100256.66;;;23.58;32.99
6144;BME280;3103;49.492;8.474;2023-06-14T06:17:47;100270.47;;;23.71;33.02
6144;BME280;3103;49.492;8.474;2023-06-14T06:20:23;100267.22;;;23.98;32.25
6144;BME280;3103;49.492;8.474;2023-06-14T06:22:56;100271.75;;;24.23;31.71
6144;BME280;3103;49.492;8.474;2023-06-14T06:25:22;100268.97;;;24.03;31.85
6144;BME280;3103;49.492;8.474;2023-06-14T06:27:54;100263.81;;;24.01;31.86
6144;BME280;3103;49.492;8.474;2023-06-14T06:30:21;100267.50;;;24.05;31.90
6144;BME280;3103;49.492;8.474;2023-06-14T06:32:48;100267.91;;;24.16;31.48
6144;BME280;3103;49.492;8.474;2023-06-14T06:35:15;100271.47;;;24.16;31.14
6144;BME280;3103;49.492;8.474;2023-06-14T06:37:42;100273.34;;;24.24;31.44
6144;BME280;3103;49.492;8.474;2023-06-14T06:40:09;100267.38;;;24.22;31.50
6144;BME280;3103;49.492;8.474;2023-06-14T06:42:36;100279.81;;;24.62;30.98
6144;BME280;3103;49.492;8.474;2023-06-14T06:45:05;100288.72;;;24.79;30.64
6144;BME280;3103;49.492;8.474;2023-06-14T06:47:34;100283.84;;;24.97;30.58
6144;BME280;3103;49.492;8.474;2023-06-14T06:50:01;100283.47;;;24.86;30.48
6144;BME280;3103;49.492;8.474;2023-06-14T06:52:32;100285.03;;;24.75;30.41
6144;BME280;3103;49.492;8.474;2023-06-14T06:55:00;100281.28;;;24.80;30.36
6144;BME280;3103;49.492;8.474;2023-06-14T06:57:29;100299.28;;;24.90;30.54
6144;BME280;3103;49.492;8.474;2023-06-14T06:59:57;100297.75;;;25.01;30.18
6144;BME280;3103;49.492;8.474;2023-06-14T07:02:23;100292.63;;;25.11;29.85
6144;BME280;3103;49.492;8.474;2023-06-14T07:04:50;100305.69;;;25.14;29.57
6144;BME280;3103;49.492;8.474;2023-06-14T07:07:17;100288.50;;;24.84;30.23
6144;BME280;3103;49.492;8.474;2023-06-14T07:09:44;100296.41;;;25.07;29.96
6144;BME280;3103;49.492;8.474;2023-06-14T07:12:12;100302.75;;;24.99;30.16
6144;BME280;3103;49.492;8.474;2023-06-14T07:14:39;100306.25;;;25.08;29.92
6144;BME280;3103;49.492;8.474;2023-06-14T07:17:06;100310.63;;;25.33;29.80
6144;BME280;3103;49.492;8.474;2023-06-14T07:19:34;100309.13;;;25.11;29.88
6144;BME280;3103;49.492;8.474;2023-06-14T07:22:01;100313.03;;;25.23;29.68
6144;BME280;3103;49.492;8.474;2023-06-14T07:24:28;100315.31;;;25.08;29.81
6144;BME280;3103;49.492;8.474;2023-06-14T07:26:55;100320.75;;;25.41;29.16
6144;BME280;3103;49.492;8.474;2023-06-14T07:29:23;100322.13;;;25.48;29.36
6144;BME280;3103;49.492;8.474;2023-06-14T07:31:49;100323.31;;;25.71;28.89
6144;BME280;3103;49.492;8.474;2023-06-14T07:34:16;100321.91;;;25.53;28.81
6144;BME280;3103;49.492;8.474;2023-06-14T07:36:43;100324.06;;;25.35;29.04
6144;BME280;3103;49.492;8.474;2023-06-14T07:39:11;100317.31;;;25.57;29.02
6144;BME280;3103;49.492;8.474;2023-06-14T07:41:38;100326.81;;;25.59;28.94
6144;BME280;3103;49.492;8.474;2023-06-14T07:44:05;100327.63;;;25.60;29.09
6144;BME280;3103;49.492;8.474;2023-06-14T07:46:32;100321.47;;;25.63;29.30
6144;BME280;3103;49.492;8.474;2023-06-14T07:49:01;100329.72;;;25.63;28.78
6144;BME280;3103;49.492;8.474;2023-06-14T07:51:28;100325.81;;;25.64;29.15
6144;BME280;3103;49.492;8.474;2023-06-14T07:53:54;100328.31;;;25.57;29.30
6144;BME280;3103;49.492;8.474;2023-06-14T07:56:21;100324.94;;;25.84;28.82
6144;BME280;3103;49.492;8.474;2023-06-14T07:58:49;100324.56;;;25.86;28.73
6144;BME280;3103;49.492;8.474;2023-06-14T08:01:16;100328.13;;;25.98;28.68
6144;BME280;3103;49.492;8.474;2023-06-14T08:03:43;100330.41;;;26.09;27.89
6144;BME280;3103;49.492;8.474;2023-06-14T08:06:10;100324.91;;;25.96;28.21
6144;BME280;3103;49.492;8.474;2023-06-14T08:08:37;100328.00;;;26.19;27.85
6144;BME280;3103;49.492;8.474;2023-06-14T08:11:04;100320.75;;;26.15;27.58
6144;BME280;3103;49.492;8.474;2023-06-14T08:13:31;100321.91;;;26.26;27.25
6144;BME280;3103;49.492;8.474;2023-06-14T08:15:58;100320.50;;;26.32;27.79
6144;BME280;3103;49.492;8.474;2023-06-14T08:18:25;100322.13;;;26.33;27.44
6144;BME280;3103;49.492;8.474;2023-06-14T08:20:52;100324.41;;;26.31;27.43
6144;BME280;3103;49.492;8.474;2023-06-14T08:23:18;100322.59;;;26.23;27.46
6144;BME280;3103;49.492;8.474;2023-06-14T08:25:47;100329.00;;;26.27;27.35
6144;BME280;3103;49.492;8.474;2023-06-14T08:28:14;100331.56;;;26.20;27.46
6144;BME280;3103;49.492;8.474;2023-06-14T08:30:42;100326.53;;;25.97;27.74
6144;BME280;3103;49.492;8.474;2023-06-14T08:33:09;100331.22;;;25.97;27.60
6144;BME280;3103;49.492;8.474;2023-06-14T08:35:42;100319.41;;;25.96;27.51
6144;BME280;3103;49.492;8.474;2023-06-14T08:38:10;100322.84;;;26.06;27.52
6144;BME280;3103;49.492;8.474;2023-06-14T08:40:39;100317.56;;;26.13;27.78
6144;BME280;3103;49.492;8.474;2023-06-14T08:43:07;100323.66;;;26.18;27.48
6144;BME280;3103;49.492;8.474;2023-06-14T08:45:34;100324.31;;;26.15;27.35
6144;BME280;3103;49.492;8.474;2023-06-14T08:48:02;100333.50;;;26.19;27.96
6144;BME280;3103;49.492;8.474;2023-06-14T08:50:30;100327.84;;;26.28;27.14
6144;BME280;3103;49.492;8.474;2023-06-14T08:53:01;100313.63;;;26.26;27.14
6144;BME280;3103;49.492;8.474;2023-06-14T08:55:31;100340.72;;;26.24;26.38
6144;BME280;3103;49.492;8.474;2023-06-14T08:58:04;100336.38;;;25.98;26.49
6144;BME280;3103;49.492;8.474;2023-06-14T09:00:32;100335.22;;;26.24;25.95
6144;BME280;3103;49.492;8.474;2023-06-14T09:03:00;100341.31;;;25.81;25.84
6144;BME280;3103;49.492;8.474;2023-06-14T09:05:27;100337.78;;;25.92;25.21
6144;BME280;3103;49.492;8.474;2023-06-14T09:07:55;100337.63;;;26.13;24.79
6144;BME280;3103;49.492;8.474;2023-06-14T09:10:22;100331.06;;;26.18;23.92
6144;BME280;3103;49.492;8.474;2023-06-14T09:12:51;100336.81;;;26.13;24.08
6144;BME280;3103;49.492;8.474;2023-06-14T09:15:18;100337.41;;;26.18;24.22
6144;BME280;3103;49.492;8.474;2023-06-14T09:17:45;100338.44;;;25.89;23.22
6144;BME280;3103;49.492;8.474;2023-06-14T09:20:12;100344.88;;;25.93;25.06
6144;BME280;3103;49.492;8.474;2023-06-14T09:22:46;100343.03;;;25.85;25.78
6144;BME280;3103;49.492;8.474;2023-06-14T09:25:13;100341.88;;;25.86;24.56
6144;BME280;3103;49.492;8.474;2023-06-14T09:28:02;100352.91;;;25.86;22.99
6144;BME280;3103;49.492;8.474;2023-06-14T09:30:29;100339.03;;;25.95;24.39
6144;BME280;3103;49.492;8.474;2023-06-14T09:32:56;100345.09;;;26.13;24.55
6144;BME280;3103;49.492;8.474;2023-06-14T09:35:26;100351.19;;;26.06;25.29
6144;BME280;3103;49.492;8.474;2023-06-14T09:37:56;100357.34;;;26.03;25.29
6144;BME280;3103;49.492;8.474;2023-06-14T09:40:23;100356.91;;;26.13;24.41
6144;BME280;3103;49.492;8.474;2023-06-14T09:42:51;100362.06;;;26.15;24.61
6144;BME280;3103;49.492;8.474;2023-06-14T09:45:19;100354.38;;;26.20;24.88
6144;BME280;3103;49.492;8.474;2023-06-14T09:47:49;100351.28;;;26.10;24.83
6144;BME280;3103;49.492;8.474;2023-06-14T09:50:33;100339.59;;;26.13;25.48
6144;BME280;3103;49.492;8.474;2023-06-14T09:53:07;100349.69;;;26.09;25.30
6144;BME280;3103;49.492;8.474;2023-06-14T09:55:37;100354.28;;;26.04;25.88
6144;BME280;3103;49.492;8.474;2023-06-14T09:58:07;100350.16;;;25.98;25.98
6144;BME280;3103;49.492;8.474;2023-06-14T10:00:36;100347.03;;;25.88;25.51
6144;BME280;3103;49.492;8.474;2023-06-14T10:03:08;100348.09;;;25.95;26.12
6144;BME280;3103;49.492;8.474;2023-06-14T10:05:39;100349.00;;;25.99;25.74
6144;BME280;3103;49.492;8.474;2023-06-14T10:08:09;100356.81;;;25.97;25.77
6144;BME280;3103;49.492;8.474;2023-06-14T10:10:39;100352.34;;;25.81;25.60
6144;BME280;3103;49.492;8.474;2023-06-14T10:13:07;100352.69;;;25.79;25.61
6144;BME280;3103;49.492;8.474;2023-06-14T10:15:41;100349.44;;;25.89;26.33
6144;BME280;3103;49.492;8.474;2023-06-14T10:21:13;100344.88;;;25.81;26.02
6144;BME280;3103;49.492;8.474;2023-06-14T10:23:44;100351.09;;;25.90;26.56
6144;BME280;3103;49.492;8.474;2023-06-14T10:26:20;100339.81;;;26.08;26.23
6144;BME280;3103;49.492;8.474;2023-06-14T10:28:57;100338.53;;;26.17;26.45
6144;BME280;3103;49.492;8.474;2023-06-14T10:31:49;100339.13;;;26.11;26.92
6144;BME280;3103;49.492;8.474;2023-06-14T10:34:24;100346.78;;;26.29;26.20
6144;BME280;3103;49.492;8.474;2023-06-14T10:37:06;100338.78;;;26.37;25.75
6144;BME280;3103;49.492;8.474;2023-06-14T10:39:41;100344.03;;;26.29;26.07
6144;BME280;3103;49.492;8.474;2023-06-14T10:42:09;100349.69;;;25.96;26.11
6144;BME280;3103;49.492;8.474;2023-06-14T10:44:41;100345.22;;;26.04;26.04
6144;BME280;3103;49.492;8.474;2023-06-14T10:47:21;100332.81;;;26.22;26.39
6144;BME280;3103;49.492;8.474;2023-06-14T10:49:56;100335.22;;;26.24;25.76
6144;BME280;3103;49.492;8.474;2023-06-14T10:52:26;100332.47;;;25.99;25.71
6144;BME280;3103;49.492;8.474;2023-06-14T10:54:59;100335.69;;;26.14;26.04
6144;BME280;3103;49.492;8.474;2023-06-14T10:57:30;100340.28;;;26.22;26.12
6144;BME280;3103;49.492;8.474;2023-06-14T11:00:17;100333.03;;;26.17;25.71
6144;BME280;3103;49.492;8.474;2023-06-14T11:05:51;100342.31;;;26.25;25.72
6144;BME280;3103;49.492;8.474;2023-06-14T11:08:26;100337.16;;;26.23;25.82
6144;BME280;3103;49.492;8.474;2023-06-14T11:10:59;100337.19;;;25.87;25.77
6144;BME280;3103;49.492;8.474;2023-06-14T11:13:26;100331.38;;;25.76;25.69
6144;BME280;3103;49.492;8.474;2023-06-14T11:15:57;100338.00;;;25.87;25.60
6144;BME280;3103;49.492;8.474;2023-06-14T11:18:24;100332.03;;;25.85;26.13
6144;BME280;3103;49.492;8.474;2023-06-14T11:20:54;100333.28;;;25.88;25.33
6144;BME280;3103;49.492;8.474;2023-06-14T11:23:22;100347.84;;;26.13;25.48
6144;BME280;3103;49.492;8.474;2023-06-14T11:25:53;100341.53;;;26.24;25.06
6144;BME280;3103;49.492;8.474;2023-06-14T11:28:20;100333.72;;;26.26;24.77
6144;BME280;3103;49.492;8.474;2023-06-14T11:30:49;100331.41;;;26.28;24.69
6144;BME280;3103;49.492;8.474;2023-06-14T11:33:18;100332.22;;;26.29;25.09
6144;BME280;3103;49.492;8.474;2023-06-14T11:35:45;100328.91;;;26.23;25.45
6144;BME280;3103;49.492;8.474;2023-06-14T11:38:12;100336.38;;;26.23;25.71
6144;BME280;3103;49.492;8.474;2023-06-14T11:40:40;100333.81;;;26.18;25.62
6144;BME280;3103;49.492;8.474;2023-06-14T11:43:06;100332.84;;;25.98;25.56
6144;BME280;3103;49.492;8.474;2023-06-14T11:45:33;100326.63;;;25.64;26.09
6144;BME280;3103;49.492;8.474;2023-06-14T11:48:00;100326.88;;;25.84;26.90
6144;BME280;3103;49.492;8.474;2023-06-14T11:50:27;100323.66;;;25.94;26.78
6144;BME280;3103;49.492;8.474;2023-06-14T11:52:56;100339.25;;;26.02;26.74
6144;BME280;3103;49.492;8.474;2023-06-14T11:55:23;100334.31;;;25.95;26.40
6144;BME280;3103;49.492;8.474;2023-06-14T11:57:51;100336.38;;;25.98;25.48
6144;BME280;3103;49.492;8.474;2023-06-14T12:00:18;100323.31;;;25.71;25.91
6144;BME280;3103;49.492;8.474;2023-06-14T12:02:55;100331.56;;;25.83;26.80
6144;BME280;3103;49.492;8.474;2023-06-14T12:05:24;100330.88;;;25.98;27.57
6144;BME280;3103;49.492;8.474;2023-06-14T12:08:01;100321.56;;;26.15;26.99
6144;BME280;3103;49.492;8.474;2023-06-14T12:10:29;100328.81;;;26.08;26.51
6144;BME280;3103;49.492;8.474;2023-06-14T12:12:57;100328.56;;;26.13;26.54
6144;BME280;3103;49.492;8.474;2023-06-14T12:15:29;100335.47;;;26.19;26.31
6144;BME280;3103;49.492;8.474;2023-06-14T12:17:58;100339.94;;;26.11;26.38
6144;BME280;3103;49.492;8.474;2023-06-14T12:20:29;100338.56;;;25.93;26.46
6144;BME280;3103;49.492;8.474;2023-06-14T12:23:03;100333.63;;;25.86;26.74
6144;BME280;3103;49.492;8.474;2023-06-14T12:25:35;100329.16;;;25.82;26.74
6144;BME280;3103;49.492;8.474;2023-06-14T12:28:07;100321.47;;;25.75;26.74
6144;BME280;3103;49.492;8.474;2023-06-14T12:30:35;100302.66;;;25.89;26.66
6144;BME280;3103;49.492;8.474;2023-06-14T12:33:03;100312.88;;;25.89;26.64
6144;BME280;3103;49.492;8.474;2023-06-14T12:35:30;100316.88;;;26.03;26.88
6144;BME280;3103;49.492;8.474;2023-06-14T12:37:57;100316.50;;;26.29;26.98
6144;BME280;3103;49.492;8.474;2023-06-14T12:40:24;100308.69;;;26.31;26.69
6144;BME280;3103;49.492;8.474;2023-06-14T12:42:50;100318.00;;;26.27;26.45
6144;BME280;3103;49.492;8.474;2023-06-14T12:45:17;100314.56;;;26.18;26.25
6144;BME280;3103;49.492;8.474;2023-06-14T12:47:45;100319.38;;;26.33;25.97
6144;BME280;3103;49.492;8.474;2023-06-14T12:50:12;100317.06;;;26.47;26.38
6144;BME280;3103;49.492;8.474;2023-06-14T12:52:39;100322.72;;;26.67;25.87
6144;BME280;3103;49.492;8.474;2023-06-14T12:55:06;100324.59;;;26.62;24.77
6144;BME280;3103;49.492;8.474;2023-06-14T12:57:33;100315.69;;;26.29;24.61
6144;BME280;3103;49.492;8.474;2023-06-14T13:00:03;100329.25;;;26.22;25.53
6144;BME280;3103;49.492;8.474;2023-06-14T13:02:33;100319.50;;;26.24;25.32
6144;BME280;3103;49.492;8.474;2023-06-14T13:05:00;100328.91;;;26.36;25.89
6144;BME280;3103;49.492;8.474;2023-06-14T13:07:30;100326.47;;;26.34;25.90
6144;BME280;3103;49.492;8.474;2023-06-14T13:09:57;100316.84;;;26.40;25.69
6144;BME280;3103;49.492;8.474;2023-06-14T13:12:24;100334.59;;;26.55;25.49
6144;BME280;3103;49.492;8.474;2023-06-14T13:14:51;100325.25;;;26.59;25.24
6144;BME280;3103;49.492;8.474;2023-06-14T13:17:18;100334.00;;;26.61;25.30
6144;BME280;3103;49.492;8.474;2023-06-14T13:19:44;100339.28;;;26.54;25.31
6144;BME280;3103;49.492;8.474;2023-06-14T13:22:12;100325.50;;;26.67;25.22
6144;BME280;3103;49.492;8.474;2023-06-14T13:24:38;100329.44;;;26.81;24.59